createdAt,value
2023-04-07T05:30:47.948Z,91.70
2023-04-07T05:33:15.997Z,91.70
2023-04-07T05:35:47.612Z,92.00
2023-04-07T05:38:17.189Z,91.90
2023-04-07T05:40:47.490Z,92.00
2023-04-07T05:43:22.285Z,92.20
2023-04-07T05:45:50.674Z,92.10
2023-04-07T05:48:18.921Z,92.20
2023-04-07T05:50:48.118Z,92.20
2023-04-07T05:53:19.862Z,92.00
2023-04-07T05:55:47.704Z,91.70
2023-04-07T05:58:24.667Z,91.90
2023-04-07T06:00:55.273Z,91.90
2023-04-07T06:03:23.313Z,91.80
2023-04-07T06:06:00.412Z,92.10
2023-04-07T06:08:29.124Z,92.00
2023-04-07T06:10:58.002Z,92.00
2023-04-07T06:13:25.643Z,91.90
2023-04-07T06:15:56.818Z,92.30
2023-04-07T06:18:25.016Z,92.20
2023-04-07T06:20:52.649Z,92.40
2023-04-07T06:23:20.223Z,92.20
2023-04-07T06:25:52.020Z,92.20
2023-04-07T06:28:20.051Z,92.20
2023-04-07T06:30:47.873Z,92.20
2023-04-07T06:33:16.619Z,92.20
2023-04-07T06:35:44.433Z,92.30
2023-04-07T06:38:12.611Z,92.20
2023-04-07T06:40:43.128Z,92.20
2023-04-07T06:43:10.972Z,92.00
2023-04-07T06:45:46.400Z,92.10
2023-04-07T06:48:14.112Z,92.20
2023-04-07T06:50:41.804Z,92.20
2023-04-07T06:53:09.389Z,92.40
2023-04-07T06:55:37.123Z,92.70
2023-04-07T06:58:04.812Z,92.70
2023-04-07T07:00:32.663Z,92.80
2023-04-07T07:03:00.527Z,92.80
2023-04-07T07:05:28.864Z,92.80
2023-04-07T07:07:56.572Z,93.00
2023-04-07T07:10:24.379Z,92.80
2023-04-07T07:12:52.776Z,92.90
2023-04-07T07:15:20.357Z,93.10
2023-04-07T07:17:47.976Z,93.20
2023-04-07T07:20:15.955Z,93.40
2023-04-07T07:22:43.951Z,93.40
2023-04-07T07:25:11.934Z,93.60
2023-04-07T07:27:40.629Z,93.80
2023-04-07T07:30:09.056Z,94.00
2023-04-07T07:32:36.942Z,93.90
2023-04-07T07:35:05.654Z,93.70
2023-04-07T07:37:33.615Z,93.60
2023-04-07T07:47:01.055Z,93.10
2023-04-07T08:10:56.383Z,92.80
2023-04-07T08:13:24.261Z,92.60
2023-04-07T08:15:51.984Z,92.60
2023-04-07T08:18:22.166Z,92.70
2023-04-07T08:20:51.741Z,92.70
2023-04-07T08:23:19.501Z,93.00
2023-04-07T08:25:47.735Z,92.80
2023-04-07T08:28:15.945Z,93.00
2023-04-07T08:30:43.942Z,93.10
2023-04-07T08:33:11.739Z,92.90
2023-04-07T08:35:39.428Z,93.10
2023-04-07T08:38:08.612Z,93.10
2023-04-07T08:40:36.588Z,93.00
2023-04-07T08:43:09.438Z,93.00
2023-04-07T08:45:42.235Z,93.20
2023-04-07T08:48:18.991Z,93.50
2023-04-07T08:50:49.527Z,92.90
2023-04-07T08:53:24.182Z,93.00
2023-04-07T08:55:53.477Z,93.20
2023-04-07T08:58:24.851Z,93.10
2023-04-07T09:00:54.005Z,92.70
2023-04-07T09:03:25.338Z,92.50
2023-04-07T09:05:54.405Z,93.00
2023-04-07T09:08:22.860Z,92.70
2023-04-07T09:16:19.110Z,92.60
2023-04-07T09:18:47.213Z,92.90
2023-04-07T09:21:16.280Z,93.00
2023-04-07T09:23:44.620Z,92.50
2023-04-07T09:26:19.311Z,92.70
2023-04-07T09:28:55.065Z,92.40
2023-04-07T09:31:26.682Z,92.40
2023-04-07T09:33:56.997Z,92.30
2023-04-07T09:36:31.350Z,92.20
2023-04-07T09:39:13.660Z,92.30
2023-04-07T09:41:42.097Z,92.20
2023-04-07T09:49:12.634Z,92.80
2023-04-07T09:51:59.906Z,92.70
2023-04-07T09:54:36.141Z,92.70
2023-04-07T09:57:08.963Z,92.90
2023-04-07T09:59:39.444Z,92.70
2023-04-07T10:02:09.146Z,92.90
2023-04-07T10:04:37.726Z,92.80
2023-04-07T10:07:06.792Z,92.80
2023-04-07T10:09:38.545Z,92.70
2023-04-07T10:12:07.238Z,92.80
2023-04-07T10:17:04.846Z,92.90
2023-04-07T10:22:18.849Z,93.20
2023-04-07T10:24:51.881Z,92.90
2023-04-07T10:27:22.935Z,92.80
2023-04-07T10:29:52.725Z,93.00
2023-04-07T10:32:20.692Z,93.10
2023-04-07T10:34:51.356Z,92.70
2023-04-07T10:37:21.464Z,92.60
2023-04-07T10:39:51.222Z,92.50
2023-04-07T10:42:38.109Z,92.30
2023-04-07T10:45:07.526Z,92.00
2023-04-07T10:48:04.665Z,91.80
2023-04-07T10:50:33.401Z,91.80
2023-04-07T10:53:13.493Z,91.70
2023-04-07T10:55:41.733Z,91.70
2023-04-07T10:58:22.904Z,91.60
2023-04-07T11:01:14.693Z,91.60
2023-04-07T11:03:54.280Z,91.50
2023-04-07T11:48:37.648Z,91.90
2023-04-07T11:51:25.204Z,91.60
2023-04-07T11:54:03.927Z,91.80
2023-04-07T12:23:20.165Z,91.50
2023-04-07T12:25:53.233Z,91.70
2023-04-07T12:28:25.910Z,91.40
2023-04-07T12:30:57.433Z,91.80
2023-04-07T12:33:32.382Z,91.60
2023-04-07T12:36:02.450Z,91.80
2023-04-07T12:38:34.340Z,91.60
2023-04-07T12:41:05.159Z,91.70
2023-04-07T12:43:35.018Z,91.90
2023-04-07T12:46:03.502Z,92.10
2023-04-07T12:48:32.045Z,92.30
2023-04-07T12:51:01.097Z,92.30
2023-04-07T13:28:27.785Z,91.50
2023-04-07T13:31:05.463Z,91.00
2023-04-07T13:33:34.537Z,90.60
2023-04-07T13:36:02.223Z,90.70
2023-04-07T13:57:32.596Z,88.40
2023-04-07T15:20:02.275Z,83.20
2023-04-07T15:22:34.965Z,83.60
2023-04-07T15:25:11.811Z,84.10
2023-04-07T15:27:44.056Z,83.60
2023-04-07T15:52:22.429Z,82.90
2023-04-07T16:07:57.983Z,83.40
2023-04-07T16:36:38.049Z,83.10
2023-04-07T16:52:50.270Z,82.80
2023-04-07T17:11:53.490Z,84.20
2023-04-07T17:14:27.071Z,82.40
2023-04-07T17:16:59.534Z,82.00
2023-04-07T17:19:28.595Z,82.60
2023-04-07T17:22:01.696Z,83.60
2023-04-07T17:25:25.963Z,82.90
2023-04-07T17:27:58.813Z,83.60
2023-04-07T17:30:27.338Z,83.30
2023-04-07T17:32:58.012Z,83.40
2023-04-07T17:35:28.614Z,82.70
2023-04-07T17:38:06.880Z,82.40
2023-04-07T17:40:41.330Z,81.90
2023-04-07T17:43:13.756Z,83.30
2023-04-07T17:45:46.989Z,82.30
2023-04-07T17:48:17.091Z,82.80
2023-04-07T17:50:50.594Z,83.20
2023-04-07T17:53:19.881Z,82.80
2023-04-07T17:55:49.811Z,83.30
2023-04-07T17:58:21.046Z,83.40
2023-04-07T18:00:48.656Z,83.90
2023-04-07T18:03:22.928Z,83.90
2023-04-07T18:05:53.672Z,84.30
2023-04-07T18:08:21.875Z,84.40
2023-04-07T18:10:50.800Z,84.40
2023-04-07T18:13:23.727Z,84.70
2023-04-07T18:15:51.968Z,85.70
2023-04-07T18:18:20.505Z,85.40
2023-04-07T18:20:53.167Z,85.10
2023-04-07T18:23:28.542Z,85.30
2023-04-07T18:25:56.620Z,85.70
2023-04-07T18:28:25.996Z,85.70
2023-04-07T18:31:42.056Z,85.60
2023-04-07T18:34:13.617Z,85.90
2023-04-07T18:36:43.222Z,85.90
2023-04-07T18:39:11.638Z,86.30
2023-04-07T18:41:44.449Z,86.60
2023-04-07T18:44:13.588Z,86.80
2023-04-07T18:46:41.635Z,87.20
2023-04-07T18:49:10.546Z,87.30
2023-04-07T19:18:22.694Z,86.60
2023-04-07T19:48:38.490Z,86.30
2023-04-07T20:00:40.163Z,86.70
2023-04-07T20:03:43.541Z,87.10
2023-04-07T20:06:29.765Z,86.80
2023-04-07T20:09:03.386Z,88.00
2023-04-07T20:12:05.044Z,87.40
2023-04-07T20:14:51.717Z,87.90
2023-04-07T20:18:11.206Z,87.50
2023-04-07T20:27:55.282Z,87.60
2023-04-07T20:30:36.868Z,87.00
2023-04-07T20:33:11.316Z,87.70
2023-04-07T20:35:49.044Z,87.40
2023-04-07T20:38:34.768Z,88.30
2023-04-07T20:41:18.614Z,88.50
2023-04-07T20:43:57.084Z,89.00
2023-04-07T20:53:32.281Z,88.90
2023-04-07T23:19:25.044Z,91.10
2023-04-07T23:22:08.834Z,90.80
